Silver, Texas
Current Conditions -  °F | °C
As of 3:35 AM on Friday 24 Oct 2014 (Local Time) from KSWW Reporting Station
Clear Clear  
Wind Chill: 17°   Ceiling: Unl
Heat Index: 17°   Visibility: 7mi
Dew Point: 16°   Wind: 10mph
Humidity: 94%   Direction: 200°SSW
Pressure: 30.16"   Gusts: NA
Location:  32.07°N, 100.68°W
Report Text: KSWW 240835Z AUTO 20009KT 7SM CLR 17/16 A3016 RMK AO2 T01680159
Loading
Personal Weather Stations






























Interactive Weather Map
Tropical Storm Tracking
New forecast layout! Learn more

10-Day Weather Forecast

Advertisements
Track Severe Weather on mobile